Time;durP1;ratioP1;P1;durP2;ratioP2;P2;SDS_P1;SDS_P2;PMS_P1;PMS_P2;Temp;Humidity;BMP_temperature;BMP_pressure;BME280_temperature;BME280_humidity;BME280_pressure;Samples;Min_cycle;Max_cycle;Signal;HPM_P1;HPM_P2
2022/08/23 00:04:58;;;;;;;2.92;1.52;;;;;;;23.17;38.81;99998.31;10388383;28;20050;-72
2022/08/23 00:10:13;;;;;;;2.70;1.20;;;;;;;23.21;38.96;100004.94;10381148;28;20057;-73
2022/08/23 00:15:19;;;;;;;2.13;1.08;;;;;;;23.21;38.60;100002.25;10393583;28;20072;-72
2022/08/23 00:20:20;;;;;;;2.00;1.30;;;;;;;23.15;39.11;100000.38;10385440;28;20198;-72
2022/08/23 00:25:22;;;;;;;2.22;1.02;;;;;;;23.08;39.07;99986.81;10385914;28;20050;-73
2022/08/23 00:30:23;;;;;;;3.75;1.40;;;;;;;23.00;39.27;99992.44;10383837;28;20123;-72
2022/08/23 00:35:25;;;;;;;2.65;1.77;;;;;;;22.92;39.32;99986.22;10390081;28;20065;-72
2022/08/23 00:40:27;;;;;;;5.53;1.40;;;;;;;22.95;39.38;99990.34;10389716;28;20141;-74
2022/08/23 00:51:11;;;;;;;3.65;1.40;;;;;;;22.91;39.95;99989.97;10389621;28;20041;-74
2022/08/23 00:56:16;;;;;;;2.95;1.80;;;;;;;22.89;40.03;99980.34;10386406;28;20057;-72
2022/08/23 01:01:18;;;;;;;3.17;1.50;;;;;;;22.91;40.79;99995.38;10384248;28;20179;-75
2022/08/23 01:06:52;;;;;;;3.65;1.80;;;;;;;22.89;40.93;99994.75;10383756;28;20077;-73
2022/08/23 01:12:10;;;;;;;3.50;1.20;;;;;;;22.85;40.39;99996.22;10362235;28;20136;-71
2022/08/23 01:17:18;;;;;;;4.75;1.80;;;;;;;22.80;40.90;99995.19;10385549;28;20080;-74
2022/08/23 01:22:30;;;;;;;3.00;1.50;;;;;;;22.76;41.26;99994.78;10386270;28;20049;-73
2022/08/23 01:27:31;;;;;;;2.72;1.30;;;;;;;22.75;41.32;99998.53;10389641;28;20050;-72
2022/08/23 01:32:39;;;;;;;3.33;1.50;;;;;;;22.66;40.91;99994.38;10386720;28;20049;-72
2022/08/23 01:37:42;;;;;;;8.10;2.35;;;;;;;22.52;41.35;99990.81;10374927;28;20088;-71
2022/08/23 01:42:43;;;;;;;1.85;1.20;;;;;;;22.50;41.38;99998.31;10392451;28;20059;-71
2022/08/23 01:47:44;;;;;;;2.33;1.50;;;;;;;22.46;42.24;100002.47;10401221;28;20068;-73
2022/08/23 01:52:46;;;;;;;3.13;1.45;;;;;;;22.45;41.98;99998.13;10398748;28;20052;-72
2022/08/23 01:57:51;;;;;;;4.68;1.55;;;;;;;22.38;42.37;99989.97;10395421;28;20045;-74
2022/08/23 02:02:52;;;;;;;2.63;1.40;;;;;;;22.30;42.67;99992.88;10388948;28;20132;-73
2022/08/23 02:07:54;;;;;;;3.22;1.20;;;;;;;22.29;42.81;99997.44;10393871;28;20053;-72
2022/08/23 02:12:55;;;;;;;5.05;1.45;;;;;;;22.31;42.97;99992.69;10392532;28;20053;-74
2022/08/23 02:17:58;;;;;;;4.00;2.05;;;;;;;22.34;42.70;99999.56;10394408;28;20127;-74
2022/08/23 02:23:00;;;;;;;4.30;1.50;;;;;;;22.20;43.05;99996.81;10379791;28;20845;-72
2022/08/23 02:28:03;;;;;;;3.92;1.73;;;;;;;22.13;43.52;99998.69;10390981;28;20072;-71
2022/08/23 02:33:05;;;;;;;5.50;1.60;;;;;;;22.07;43.59;100000.31;10390222;28;20136;-72
2022/08/23 02:38:10;;;;;;;3.35;1.30;;;;;;;22.11;43.74;100011.56;10395290;28;20862;-71
2022/08/23 02:43:11;;;;;;;2.92;1.52;;;;;;;22.03;43.80;100006.38;10390242;28;20079;-73
2022/08/23 02:48:13;;;;;;;3.50;1.58;;;;;;;22.05;43.70;100012.41;10388745;28;20053;-73
2022/08/23 02:53:16;;;;;;;1.75;1.38;;;;;;;21.94;43.66;100004.88;10394031;28;20050;-73
2022/08/23 02:58:17;;;;;;;4.25;1.77;;;;;;;21.84;43.56;100006.13;10390605;28;20715;-71
2022/08/23 03:03:20;;;;;;;3.83;2.28;;;;;;;21.78;44.21;100006.91;10389755;28;20052;-72
2022/08/23 03:08:24;;;;;;;4.30;1.90;;;;;;;21.84;44.57;100016.09;10391604;28;20064;-74
2022/08/23 03:13:25;;;;;;;2.28;1.83;;;;;;;21.84;44.34;100016.94;10396023;28;20053;-74
2022/08/23 03:18:26;;;;;;;4.20;1.63;;;;;;;21.85;44.20;100024.00;10409677;28;20112;-74
2022/08/23 03:23:28;;;;;;;2.30;1.65;;;;;;;21.71;44.56;100019.59;10404262;28;20332;-72
2022/08/23 03:28:31;;;;;;;4.40;2.10;;;;;;;21.70;44.40;100020.63;10392516;28;20140;-73
2022/08/23 03:33:33;;;;;;;;;;;;;;;21.66;44.66;100022.06;10389665;28;20049;-72
2022/08/23 03:38:35;;;;;;;4.30;2.30;;;;;;;21.53;45.21;100009.31;10393663;28;20036;-72
2022/08/23 03:43:37;;;;;;;4.32;2.00;;;;;;;21.61;45.49;100028.09;10391609;28;20164;-71
2022/08/23 03:48:40;;;;;;;4.03;1.87;;;;;;;21.60;45.30;100031.81;10391325;28;20705;-72
2022/08/23 03:53:41;;;;;;;3.35;1.98;;;;;;;21.42;45.70;100017.97;10375681;28;20055;-71
2022/08/23 03:58:43;;;;;;;3.38;2.10;;;;;;;21.45;46.00;100029.25;10388365;28;20834;-74
2022/08/23 04:03:44;;;;;;;4.97;2.30;;;;;;;21.37;45.94;100032.09;10391416;28;20498;-72
2022/08/23 04:08:46;;;;;;;1.70;1.50;;;;;;;21.33;46.31;100028.13;10386456;28;20041;-72
2022/08/23 04:13:48;;;;;;;4.25;2.22;;;;;;;21.30;46.42;100047.47;10391726;28;20999;-73
2022/08/23 04:18:49;;;;;;;3.35;1.80;;;;;;;21.27;46.98;100045.16;10392336;28;20141;-72
2022/08/23 04:23:51;;;;;;;3.75;1.95;;;;;;;21.24;47.04;100057.22;10389596;28;20052;-71
2022/08/23 04:28:53;;;;;;;2.80;2.17;;;;;;;21.25;47.05;100060.78;10385688;28;20134;-74
2022/08/23 04:33:55;;;;;;;2.47;2.00;;;;;;;21.27;47.35;100061.41;10382894;28;20061;-72
2022/08/23 04:38:57;;;;;;;2.60;1.70;;;;;;;21.29;47.58;100075.59;10390346;28;20096;-72
2022/08/23 04:43:59;;;;;;;4.72;1.80;;;;;;;21.21;47.17;100075.72;10387360;28;20142;-72
2022/08/23 04:49:02;;;;;;;5.97;2.90;;;;;;;21.20;47.59;100080.31;10389754;28;20123;-71
2022/08/23 04:54:04;;;;;;;3.38;1.98;;;;;;;21.16;47.48;100085.28;10389007;28;20045;-74
2022/08/23 04:59:05;;;;;;;3.05;2.10;;;;;;;21.14;47.75;100087.34;10374294;28;20044;-74
2022/08/23 05:04:07;;;;;;;3.28;2.22;;;;;;;21.09;47.84;100084.41;10378428;28;20513;-72
2022/08/23 05:09:09;;;;;;;4.60;2.95;;;;;;;20.96;48.08;100092.41;10369001;28;20132;-71
2022/08/23 05:14:10;;;;;;;3.30;2.65;;;;;;;20.89;48.60;100096.94;10381832;28;20050;-71
2022/08/23 05:19:12;;;;;;;3.60;2.58;;;;;;;20.88;48.45;100093.38;10392266;28;20048;-72
2022/08/23 05:24:13;;;;;;;2.90;2.35;;;;;;;20.87;48.64;100101.69;10388879;28;20053;-72
2022/08/23 05:29:15;;;;;;;4.38;2.33;;;;;;;20.89;48.63;100113.16;10378564;28;20167;-73
2022/08/23 05:34:18;;;;;;;6.00;2.17;;;;;;;20.85;48.86;100123.50;10389631;28;20082;-72
2022/08/23 05:39:23;;;;;;;3.90;2.30;;;;;;;20.78;49.10;100119.94;10369328;28;20044;-75
2022/08/23 05:44:37;;;;;;;5.10;2.78;;;;;;;20.88;49.03;100133.13;10386823;28;20104;-72
2022/08/23 05:49:39;;;;;;;4.28;2.08;;;;;;;20.86;49.03;100130.59;10369768;28;20140;-72
2022/08/23 05:54:40;;;;;;;4.70;2.60;;;;;;;20.86;48.83;100136.03;10395808;28;20052;-73
2022/08/23 05:59:42;;;;;;;7.95;2.85;;;;;;;20.91;49.32;100147.13;10393071;28;20044;-71
2022/08/23 06:04:43;;;;;;;5.55;2.22;;;;;;;21.04;48.78;100154.50;10390935;28;20063;-72
2022/08/23 06:09:45;;;;;;;3.72;2.20;;;;;;;21.13;49.45;100144.38;10371177;28;20045;-72
2022/08/23 06:14:46;;;;;;;3.78;2.28;;;;;;;21.33;49.11;100145.38;10373575;28;20087;-74
2022/08/23 06:19:48;;;;;;;4.57;2.70;;;;;;;21.49;48.17;100149.63;10392349;28;20500;-72
2022/08/23 06:24:50;;;;;;;6.93;2.67;;;;;;;21.64;47.78;100162.28;10391929;28;20049;-72
2022/08/23 06:29:52;;;;;;;4.20;3.17;;;;;;;21.81;47.65;100154.66;10399984;28;20634;-71
2022/08/23 06:34:53;;;;;;;3.00;2.40;;;;;;;21.94;47.17;100157.44;10394087;28;20715;-70
2022/08/23 06:40:15;;;;;;;3.30;2.72;;;;;;;22.11;47.07;100160.66;10388643;28;20773;-72
2022/08/23 06:45:18;;;;;;;3.17;1.95;;;;;;;22.22;46.23;100164.69;10393077;28;20057;-74
2022/08/23 06:50:30;;;;;;;5.95;2.60;;;;;;;22.32;46.77;100158.91;10393035;28;20139;-72
2022/08/23 06:55:32;;;;;;;3.90;2.22;;;;;;;22.45;45.38;100163.53;10396503;28;20216;-72
2022/08/23 07:00:34;;;;;;;9.68;2.08;;;;;;;22.51;45.40;100158.13;10388731;28;20577;-73
2022/08/23 07:05:36;;;;;;;3.08;1.90;;;;;;;22.66;45.36;100165.28;10392736;28;20480;-72
2022/08/23 07:10:37;;;;;;;3.05;1.90;;;;;;;22.88;44.72;100166.78;10400492;28;20059;-73
2022/08/23 07:15:38;;;;;;;3.00;1.90;;;;;;;22.99;43.87;100162.59;10399318;28;20055;-73
2022/08/23 07:20:40;;;;;;;3.88;2.00;;;;;;;23.14;43.85;100167.88;10374878;28;20070;-74
2022/08/23 07:25:42;;;;;;;4.80;2.17;;;;;;;23.24;43.79;100164.72;10394458;28;20053;-72
2022/08/23 07:30:44;;;;;;;3.83;2.08;;;;;;;23.63;42.86;100172.03;10395614;28;20507;-74
2022/08/23 07:35:50;;;;;;;4.35;2.47;;;;;;;23.85;42.40;100174.50;10390791;28;20045;-73
2022/08/23 07:40:52;;;;;;;5.95;2.35;;;;;;;23.91;41.84;100167.38;10393738;28;20049;-73
2022/08/23 07:45:54;;;;;;;;;;;;;;;24.00;42.09;100168.81;10394714;28;20147;-73
2022/08/23 07:51:00;;;;;;;5.00;1.75;;;;;;;24.03;41.30;100164.84;10392344;28;19934;-72
2022/08/23 07:56:08;;;;;;;5.15;2.85;;;;;;;24.05;40.94;100170.88;10387035;28;20063;-73
2022/08/23 08:01:20;;;;;;;4.60;2.40;;;;;;;24.10;41.34;100177.34;10391555;28;20044;-74
2022/08/23 08:06:26;;;;;;;4.50;2.25;;;;;;;24.16;41.00;100186.56;10393549;28;20499;-72
2022/08/23 08:11:30;;;;;;;2.45;1.60;;;;;;;24.42;40.49;100185.59;10394078;28;20059;-73
2022/08/23 08:16:44;;;;;;;5.53;1.77;;;;;;;24.97;40.03;100182.38;10391368;28;20075;-71
2022/08/23 08:21:47;;;;;;;6.28;1.90;;;;;;;25.23;38.47;100191.41;10365907;28;20057;-73
2022/08/23 08:26:48;;;;;;;5.20;1.70;;;;;;;25.26;38.77;100185.50;10387112;28;20435;-73
2022/08/23 08:31:50;;;;;;;2.97;1.73;;;;;;;25.53;38.54;100190.75;10387772;28;20056;-74
2022/08/23 08:36:57;;;;;;;3.85;1.90;;;;;;;25.90;37.59;100190.81;10391363;28;20066;-73
2022/08/23 08:42:11;;;;;;;3.97;1.67;;;;;;;25.97;37.82;100186.09;10384426;28;20064;-72
2022/08/23 08:47:17;;;;;;;5.38;2.83;;;;;;;26.26;37.11;100202.81;10373462;28;20052;-74
2022/08/23 08:52:25;;;;;;;4.47;2.00;;;;;;;26.77;36.47;100193.34;10379480;28;20191;-73
2022/08/23 08:57:40;;;;;;;4.43;1.80;;;;;;;27.11;35.53;100196.44;10385743;28;20190;-73
2022/08/23 09:02:42;;;;;;;3.05;1.35;;;;;;;27.11;35.02;100206.50;10380849;28;20436;-76
2022/08/23 09:08:05;;;;;;;4.53;2.28;;;;;;;27.63;35.66;100198.50;10389363;28;20053;-75
2022/08/23 09:13:18;;;;;;;4.55;1.90;;;;;;;27.74;33.89;100199.56;10379793;28;20053;-74
2022/08/23 09:18:22;;;;;;;2.85;1.65;;;;;;;28.10;34.77;100194.91;10383744;28;20462;-76
2022/08/23 09:23:33;;;;;;;4.05;1.65;;;;;;;28.36;33.58;100190.00;10376996;28;20525;-74
2022/08/23 09:28:35;;;;;;;2.35;1.30;;;;;;;28.38;33.91;100183.19;10385823;28;20128;-75
2022/08/23 09:33:42;;;;;;;8.27;1.75;;;;;;;28.52;33.24;100183.72;10387003;28;20099;-77
2022/08/23 09:39:24;;;;;;;3.25;1.80;;;;;;;28.64;32.97;100174.66;10385443;28;20699;-75
2022/08/23 09:44:40;;;;;;;4.07;1.58;;;;;;;29.01;32.84;100182.47;10387561;28;20522;-75
2022/08/23 09:49:46;;;;;;;4.07;1.70;;;;;;;29.32;31.21;100177.50;10386101;28;20102;-76
2022/08/23 09:55:01;;;;;;;2.88;1.90;;;;;;;30.00;31.07;100180.19;10393958;28;20048;-77
2022/08/23 10:00:16;;;;;;;3.20;1.70;;;;;;;30.92;28.77;100170.22;10396772;28;20158;-77
2022/08/23 10:05:28;;;;;;;4.28;1.70;;;;;;;30.93;29.00;100171.88;10400209;28;20534;-79
2022/08/23 10:10:32;;;;;;;;;;;;;;;31.17;29.26;100166.06;10394894;28;20148;-77
2022/08/23 10:16:08;;;;;;;2.88;1.85;;;;;;;31.75;28.56;100159.88;10392053;28;19925;-75
2022/08/23 10:21:19;;;;;;;3.45;1.35;;;;;;;32.17;27.35;100143.31;10386937;28;20037;-73
2022/08/23 10:26:32;;;;;;;4.85;2.25;;;;;;;35.61;23.85;100139.66;10384122;28;20052;-72
2022/08/23 10:31:46;;;;;;;2.75;1.50;;;;;;;38.93;20.60;100141.63;10376137;28;20176;-73
2022/08/23 10:37:07;;;;;;;3.17;1.40;;;;;;;39.58;18.02;100137.41;10393962;28;20502;-73
2022/08/23 10:42:53;;;;;;;3.22;1.58;;;;;;;37.32;21.23;100142.50;10375675;28;20048;-75
2022/08/23 10:48:01;;;;;;;3.42;1.73;;;;;;;36.95;21.42;100133.97;10390218;28;20048;-76
2022/08/23 10:53:12;;;;;;;2.53;1.60;;;;;;;39.35;18.56;100133.84;10379482;28;20041;-75
2022/08/23 10:58:20;;;;;;;1.30;1.02;;;;;;;42.92;16.36;100132.53;10388262;28;20046;-76
2022/08/23 11:03:56;;;;;;;2.65;1.10;;;;;;;44.64;14.95;100125.31;10394244;28;20048;-75
2022/08/23 11:09:00;;;;;;;4.40;1.60;;;;;;;45.47;13.72;100111.47;10378923;28;20063;-78
2022/08/23 11:14:01;;;;;;;2.03;1.38;;;;;;;46.26;13.07;100112.50;10383783;28;20052;-77
2022/08/23 11:19:11;;;;;;;2.58;1.33;;;;;;;46.83;11.87;100114.81;10366012;28;20669;-77
2022/08/23 11:24:17;;;;;;;2.42;1.10;;;;;;;46.85;12.58;100107.63;10388818;28;20055;-75
2022/08/23 11:29:21;;;;;;;1.77;1.25;;;;;;;47.20;11.95;100108.66;10389005;28;20052;-76
2022/08/23 11:34:49;;;;;;;4.80;1.10;;;;;;;47.10;10.88;100099.66;10370888;28;20053;-77
2022/08/23 11:39:59;;;;;;;;;;;;;;;47.65;10.79;100095.72;10390864;28;20041;-76
2022/08/23 11:45:02;;;;;;;3.22;1.30;;;;;;;48.16;10.97;100088.00;10365997;28;19940;-75
2022/08/23 11:50:24;;;;;;;2.47;1.55;;;;;;;48.20;10.46;100097.31;10390262;28;20255;-78
2022/08/23 11:55:46;;;;;;;2.13;1.33;;;;;;;47.61;10.66;100078.75;10386569;28;20038;-74
2022/08/23 12:01:08;;;;;;;2.47;1.30;;;;;;;47.36;10.81;100094.47;10388187;28;20047;-75
2022/08/23 12:06:49;;;;;;;1.88;1.10;;;;;;;44.12;12.97;100082.06;10390505;28;20045;-77
2022/08/23 12:11:54;;;;;;;2.40;1.35;;;;;;;40.94;15.50;100082.78;10366972;28;20597;-75
2022/08/23 12:17:27;;;;;;;2.47;1.30;;;;;;;39.88;16.19;100072.78;10384265;28;20205;-75
2022/08/23 12:22:50;;;;;;;3.17;1.40;;;;;;;38.87;17.28;100074.16;10388285;28;20514;-75
2022/08/23 12:27:58;;;;;;;3.25;1.20;;;;;;;38.76;18.04;100061.63;10391998;28;20560;-75
2022/08/23 12:33:15;;;;;;;2.28;1.50;;;;;;;38.95;17.79;100057.84;10393383;28;20123;-76
2022/08/23 12:38:23;;;;;;;4.05;1.63;;;;;;;38.45;18.97;100067.13;10387218;28;20740;-77
2022/08/23 12:43:31;;;;;;;3.83;1.45;;;;;;;38.75;18.15;100064.75;10376551;28;20057;-75
2022/08/23 12:48:45;;;;;;;3.55;2.08;;;;;;;38.44;18.11;100059.94;10384141;28;20068;-76
2022/08/23 12:53:46;;;;;;;2.55;1.33;;;;;;;38.08;18.52;100053.22;10384862;28;20044;-77
2022/08/23 12:58:53;;;;;;;2.42;1.77;;;;;;;37.43;18.86;100065.44;10387607;28;20058;-78
2022/08/23 13:04:03;;;;;;;2.92;1.90;;;;;;;37.28;20.08;100055.47;10386120;28;20061;-77
2022/08/23 13:09:21;;;;;;;2.97;1.60;;;;;;;37.05;19.67;100060.03;10384031;28;20647;-75
2022/08/23 13:14:40;;;;;;;1.73;1.25;;;;;;;36.92;19.88;100051.41;10370655;28;20067;-74
2022/08/23 13:19:42;;;;;;;5.57;2.43;;;;;;;36.70;19.10;100045.66;10386303;28;20184;-75
2022/08/23 13:24:56;;;;;;;2.67;1.52;;;;;;;36.61;19.72;100040.81;10386198;28;20058;-75
2022/08/23 13:30:21;;;;;;;3.00;2.00;;;;;;;36.35;19.47;100042.38;10386417;28;20063;-76
2022/08/23 13:36:11;;;;;;;3.30;1.83;;;;;;;36.12;19.36;100039.34;10380743;28;20707;-74
2022/08/23 13:41:35;;;;;;;2.95;1.55;;;;;;;36.09;19.54;100034.41;10374462;28;20056;-76
2022/08/23 13:46:45;;;;;;;2.33;1.77;;;;;;;35.83;20.09;100018.16;10403920;28;20234;-78
2022/08/23 13:51:58;;;;;;;2.58;1.45;;;;;;;35.53;20.38;100031.25;10397211;28;20065;-76
2022/08/23 13:57:21;;;;;;;4.05;1.80;;;;;;;34.96;20.38;100025.50;10404216;28;20053;-76
2022/08/23 14:02:23;;;;;;;3.50;1.70;;;;;;;34.93;20.89;100028.06;10409484;28;20044;-75
2022/08/23 14:07:24;;;;;;;3.50;2.03;;;;;;;34.59;21.29;100020.59;10381713;28;20413;-76
2022/08/23 14:12:30;;;;;;;3.60;1.70;;;;;;;34.56;21.10;100021.16;10398393;28;20435;-75
2022/08/23 14:17:37;;;;;;;5.50;2.08;;;;;;;34.38;21.29;100012.50;10398247;28;20204;-75
2022/08/23 14:22:39;;;;;;;3.20;1.73;;;;;;;34.20;21.38;100013.97;10400116;28;20515;-74
2022/08/23 14:27:43;;;;;;;2.42;1.90;;;;;;;33.95;21.53;100007.50;10394632;28;20128;-76
2022/08/23 14:32:44;;;;;;;4.40;2.17;;;;;;;33.53;21.78;100017.06;10392283;28;20049;-77
2022/08/23 14:37:46;;;;;;;0.70;0.50;;;;;;;33.21;25.56;100025.72;10377219;28;20049;-75
2022/08/23 14:43:05;;;;;;;2.40;2.20;;;;;;;33.09;23.20;100017.75;10396774;28;20055;-77
2022/08/23 14:48:06;;;;;;;;;;;;;;;32.94;22.59;100015.88;10392726;28;20048;-76
2022/08/23 14:53:09;;;;;;;3.30;1.83;;;;;;;32.80;22.89;100014.78;10392342;28;20370;-75
2022/08/23 14:58:10;;;;;;;3.00;2.03;;;;;;;32.72;22.80;100019.72;10390314;28;20057;-79
2022/08/23 15:03:15;;;;;;;;;;;;;;;32.51;22.67;100012.56;10390441;28;20459;-76
2022/08/23 15:08:17;;;;;;;2.42;1.85;;;;;;;32.28;23.37;100014.75;10390782;28;19925;-78
2022/08/23 15:13:20;;;;;;;4.40;1.83;;;;;;;32.20;23.12;100004.28;10394115;28;20041;-76
2022/08/23 15:18:35;;;;;;;2.65;1.98;;;;;;;32.13;23.41;100011.97;10389511;28;20103;-76
2022/08/23 15:23:37;;;;;;;3.95;2.20;;;;;;;32.17;23.20;99993.81;10389986;28;20075;-75
2022/08/23 15:28:39;;;;;;;2.42;2.00;;;;;;;32.07;23.05;100002.88;10391748;28;20059;-76
2022/08/23 15:33:40;;;;;;;4.50;1.92;;;;;;;31.83;23.38;99991.53;10388672;28;20730;-76
2022/08/23 15:38:44;;;;;;;3.55;2.13;;;;;;;31.85;23.80;99994.84;10389942;28;20770;-75
2022/08/23 15:43:46;;;;;;;2.35;1.80;;;;;;;31.80;24.37;99983.78;10394087;28;20075;-73
2022/08/23 15:48:53;;;;;;;4.13;2.20;;;;;;;31.77;23.70;99979.69;10392796;28;20055;-73
2022/08/23 15:53:55;;;;;;;2.35;1.98;;;;;;;31.70;23.46;99971.66;10377187;28;20747;-76
2022/08/23 15:58:58;;;;;;;3.33;1.85;;;;;;;31.67;23.63;99982.41;10387349;28;20096;-78
2022/08/23 16:04:00;;;;;;;2.40;1.80;;;;;;;31.58;24.04;99993.09;10403796;28;20450;-75
2022/08/23 16:09:04;;;;;;;3.28;2.30;;;;;;;31.42;23.59;99985.84;10398587;28;20082;-76
2022/08/23 16:14:05;;;;;;;3.53;2.03;;;;;;;31.35;23.75;99991.63;10390279;28;20891;-73
2022/08/23 16:19:07;;;;;;;4.05;2.35;;;;;;;31.27;24.09;99984.72;10390333;28;20152;-75
2022/08/23 16:24:09;;;;;;;5.68;1.95;;;;;;;31.29;23.72;99981.69;10383604;28;20049;-75
2022/08/23 16:29:15;;;;;;;2.17;1.70;;;;;;;31.12;24.03;99976.38;10371189;28;20441;-76
2022/08/23 16:34:18;;;;;;;3.25;2.55;;;;;;;31.13;24.04;99980.78;10385805;28;20416;-74
2022/08/23 16:39:20;;;;;;;3.13;1.52;;;;;;;31.10;24.02;99986.81;10391477;28;20058;-74
2022/08/23 16:44:21;;;;;;;2.97;2.00;;;;;;;31.02;24.05;99983.47;10389301;28;20044;-73
2022/08/23 16:49:24;;;;;;;4.20;1.98;;;;;;;30.96;24.11;99989.19;10390350;28;20057;-74
2022/08/23 16:54:27;;;;;;;2.42;1.90;;;;;;;30.89;24.46;99989.41;10391251;28;20635;-74
2022/08/23 16:59:28;;;;;;;3.85;2.70;;;;;;;30.91;24.37;99995.47;10392606;28;20059;-74
2022/08/23 17:04:31;;;;;;;4.05;1.50;;;;;;;30.93;25.28;99995.22;10373921;28;20167;-74
2022/08/23 17:09:33;;;;;;;3.85;2.25;;;;;;;30.82;24.54;99989.63;10385644;28;20436;-76
2022/08/23 17:14:34;;;;;;;3.83;2.17;;;;;;;30.73;24.57;99984.91;10390364;28;20128;-74
2022/08/23 17:19:37;;;;;;;4.28;2.00;;;;;;;30.70;25.01;100001.91;10389257;28;20065;-75
2022/08/23 17:24:39;;;;;;;2.78;2.17;;;;;;;30.58;24.92;100000.19;10387421;28;20147;-75
2022/08/23 17:29:41;;;;;;;2.20;1.88;;;;;;;30.47;25.08;100009.41;10389048;28;20061;-73
2022/08/23 17:34:42;;;;;;;3.05;2.15;;;;;;;30.36;25.32;100016.72;10375690;28;20698;-75
2022/08/23 17:39:44;;;;;;;2.47;2.17;;;;;;;30.23;25.34;100015.22;10395812;28;20056;-75
2022/08/23 17:44:45;;;;;;;3.55;2.03;;;;;;;30.11;25.63;100025.53;10392450;28;20060;-77
2022/08/23 17:49:48;;;;;;;4.23;2.23;;;;;;;29.96;25.38;100018.78;10397576;28;20129;-75
2022/08/23 17:54:49;;;;;;;3.35;2.05;;;;;;;29.86;24.72;100026.06;10400986;28;20136;-77
2022/08/23 17:59:52;;;;;;;5.17;2.17;;;;;;;29.76;26.05;100027.59;10407651;28;20075;-75
2022/08/23 18:04:53;;;;;;;4.78;2.20;;;;;;;29.60;25.11;100029.31;10401770;28;20049;-75
2022/08/23 18:09:55;;;;;;;2.23;1.77;;;;;;;29.45;25.00;100031.84;10394620;28;20690;-77
2022/08/23 18:14:57;;;;;;;2.92;1.85;;;;;;;29.27;26.30;100031.09;10400228;28;20474;-76
2022/08/23 18:19:59;;;;;;;2.67;2.23;;;;;;;29.21;26.55;100045.78;10404063;28;20102;-75
2022/08/23 18:25:00;;;;;;;4.15;2.20;;;;;;;29.06;26.73;100051.84;10378261;28;20136;-75
2022/08/23 18:30:03;;;;;;;5.07;2.20;;;;;;;28.95;27.04;100058.25;10404354;28;20057;-74
2022/08/23 18:35:05;;;;;;;4.68;2.72;;;;;;;28.78;27.83;100061.00;10413053;28;20075;-74
2022/08/23 18:40:07;;;;;;;3.13;2.80;;;;;;;28.67;28.12;100078.34;10427499;28;20057;-74
2022/08/23 18:45:12;;;;;;;4.40;3.70;;;;;;;28.54;28.56;100084.94;10430451;28;20049;-75
2022/08/23 18:50:15;;;;;;;6.65;4.18;;;;;;;28.43;29.76;100092.13;10425004;28;20072;-77
2022/08/23 18:55:18;;;;;;;5.03;4.22;;;;;;;28.29;29.52;100088.88;10431294;28;20107;-77
2022/08/23 19:00:20;;;;;;;4.28;3.88;;;;;;;28.14;30.06;100078.47;10425916;28;20135;-78
2022/08/23 19:05:22;;;;;;;7.10;4.93;;;;;;;28.09;29.93;100086.59;10427831;28;20052;-77
2022/08/23 19:10:23;;;;;;;6.68;4.03;;;;;;;27.96;30.09;100098.63;10439616;28;20056;-74
2022/08/23 19:15:27;;;;;;;7.00;4.72;;;;;;;27.90;29.83;100113.25;10456457;28;20103;-76
2022/08/23 19:20:29;;;;;;;5.88;5.05;;;;;;;27.78;31.45;100112.44;10437769;28;20049;-78
2022/08/23 19:25:32;;;;;;;6.40;4.40;;;;;;;27.62;31.01;100114.84;10429787;28;20091;-77
2022/08/23 19:30:36;;;;;;;6.22;4.72;;;;;;;27.51;30.87;100127.44;10419337;28;20057;-75
2022/08/23 19:35:41;;;;;;;8.07;5.20;;;;;;;27.39;31.57;100112.97;10405622;28;20052;-74
2022/08/23 19:40:42;;;;;;;8.33;5.13;;;;;;;27.39;31.29;100115.69;10438862;28;20061;-78
2022/08/23 19:45:44;;;;;;;7.60;5.00;;;;;;;27.32;32.22;100120.41;10416167;28;20175;-78
2022/08/23 19:50:49;;;;;;;7.90;4.80;;;;;;;27.19;32.24;100120.63;10413902;28;20053;-75
2022/08/23 19:55:50;;;;;;;8.67;4.67;;;;;;;27.07;32.37;100113.28;10404114;28;20042;-74
2022/08/23 20:00:53;;;;;;;;;;;;;;;27.06;32.90;100130.72;10402365;28;20076;-75
2022/08/23 20:05:54;;;;;;;7.03;5.40;;;;;;;26.95;32.83;100134.28;10413122;28;19929;-76
2022/08/23 20:10:56;;;;;;;7.07;5.22;;;;;;;26.84;32.91;100137.81;10420939;28;20156;-76
2022/08/23 20:15:57;;;;;;;8.25;5.85;;;;;;;26.79;33.54;100144.78;10413898;28;20060;-74
2022/08/23 20:20:59;;;;;;;6.93;5.38;;;;;;;26.71;34.22;100158.78;10406059;28;20052;-77
2022/08/23 20:26:00;;;;;;;6.53;5.53;;;;;;;26.58;33.71;100150.75;10418062;28;20056;-76
2022/08/23 20:31:27;;;;;;;6.75;4.97;;;;;;;26.46;34.13;100150.72;10420388;28;20060;-77
2022/08/23 20:36:28;;;;;;;5.50;4.22;;;;;;;26.41;33.70;100153.31;10399602;28;20692;-78
2022/08/23 20:41:33;;;;;;;4.07;3.58;;;;;;;26.32;35.82;100151.94;10395378;28;20056;-75
2022/08/23 20:46:35;;;;;;;5.68;3.80;;;;;;;26.23;35.22;100146.00;10398914;28;20127;-74
2022/08/23 20:51:38;;;;;;;4.38;3.35;;;;;;;26.19;34.87;100161.97;10400893;28;20500;-76
2022/08/23 20:56:40;;;;;;;7.03;4.15;;;;;;;26.02;36.76;100148.13;10389237;28;20049;-77
2022/08/23 21:01:41;;;;;;;4.93;3.83;;;;;;;25.97;37.04;100164.28;10406867;28;20065;-74
2022/08/23 21:06:47;;;;;;;5.28;3.92;;;;;;;25.85;36.68;100158.78;10381848;28;20185;-75
2022/08/23 21:11:50;;;;;;;5.88;3.83;;;;;;;25.82;36.89;100166.56;10399268;28;20490;-76
2022/08/23 21:16:51;;;;;;;6.50;4.70;;;;;;;25.77;36.83;100181.69;10393781;28;20099;-75
2022/08/23 21:21:53;;;;;;;4.43;4.03;;;;;;;25.69;37.27;100195.63;10401117;28;20674;-77
2022/08/23 21:26:54;;;;;;;4.85;3.00;;;;;;;25.54;36.36;100187.00;10385283;28;20081;-76
2022/08/23 21:31:56;;;;;;;6.68;3.20;;;;;;;25.52;36.57;100200.84;10403173;28;20057;-75
2022/08/23 21:36:58;;;;;;;4.78;2.80;;;;;;;25.38;36.95;100194.66;10381003;28;20058;-77
2022/08/23 21:41:59;;;;;;;4.72;3.72;;;;;;;25.32;37.31;100206.44;10394294;28;20527;-76
2022/08/23 21:47:00;;;;;;;5.28;3.35;;;;;;;25.26;36.93;100217.38;10392747;28;20136;-76
2022/08/23 21:52:03;;;;;;;4.13;3.20;;;;;;;25.16;38.13;100215.13;10397433;28;20159;-77
2022/08/23 21:57:04;;;;;;;4.15;3.15;;;;;;;25.14;37.58;100209.06;10393644;28;20053;-77
2022/08/23 22:02:06;;;;;;;3.00;2.67;;;;;;;25.02;37.36;100203.50;10411330;28;20075;-78
2022/08/23 22:07:07;;;;;;;4.47;2.97;;;;;;;25.13;37.99;100212.84;10403381;28;20053;-76
2022/08/23 22:12:09;;;;;;;4.57;2.65;;;;;;;25.13;36.69;100223.75;10403707;28;20570;-75
2022/08/23 22:17:10;;;;;;;4.63;2.70;;;;;;;24.93;38.52;100213.81;10396986;28;20765;-76
2022/08/23 22:22:13;;;;;;;3.65;3.25;;;;;;;24.87;38.40;100214.69;10403666;28;20057;-75
2022/08/23 22:27:16;;;;;;;3.75;2.78;;;;;;;24.85;38.87;100223.09;10403188;28;20064;-77
2022/08/23 22:32:21;;;;;;;;;;;;;;;24.78;38.79;100226.91;10383629;28;20053;-78
2022/08/23 22:37:24;;;;;;;3.85;2.67;;;;;;;24.70;39.03;100217.09;10397957;28;20080;-77
2022/08/23 22:42:25;;;;;;;3.63;3.33;;;;;;;24.67;39.33;100218.38;10384223;28;20045;-75
2022/08/23 22:47:28;;;;;;;4.72;3.25;;;;;;;24.54;39.10;100204.78;10399042;28;20057;-75
2022/08/23 22:52:30;;;;;;;4.53;2.88;;;;;;;24.48;39.69;100205.66;10398233;28;20157;-76
2022/08/23 22:57:31;;;;;;;5.20;3.20;;;;;;;24.47;39.70;100220.31;10380802;28;20046;-76
2022/08/23 23:02:32;;;;;;;5.85;2.80;;;;;;;24.43;40.05;100221.81;10388666;28;20132;-76
2022/08/23 23:12:54;;;;;;;3.47;2.45;;;;;;;24.31;39.81;100222.47;10404559;28;20652;-76
2022/08/23 23:17:56;;;;;;;2.88;2.30;;;;;;;24.24;39.79;100229.81;10397251;28;20055;-75
2022/08/23 23:22:57;;;;;;;3.13;2.38;;;;;;;24.28;39.88;100238.41;10398639;28;20076;-75
2022/08/23 23:28:00;;;;;;;4.30;2.20;;;;;;;24.18;39.85;100234.25;10389022;28;20071;-77
2022/08/23 23:33:03;;;;;;;3.33;2.08;;;;;;;24.20;40.20;100244.91;10400093;28;20555;-77
2022/08/23 23:38:05;;;;;;;2.13;1.93;;;;;;;24.18;40.18;100247.84;10387094;28;20073;-75
2022/08/23 23:43:07;;;;;;;4.00;2.10;;;;;;;24.13;40.58;100250.34;10398977;28;20109;-74